LFSTLFGA

Guest
Details From LFST - Entzheim
To LFGA - Houssen
Flight Number -
Tags generated
Created
Modified
Stats Distance 28 nm / 52 km
Max Altitude 1,000 ft / 305 m
Waypoints 3
Social Downloads 0
Likes 0
Share VATSIM

Download

Looking for another format? Having issues loading an existing format? Contact us
Advertisement - Login to hide

Notes

Basic altitude profile: - Ascent Rate: 2500ft/min - Ascent Speed: 250kts - Cruise Altitude: 35000ft - Cruise Speed: 420kts - Descent Rate: 1500ft/min - Descent Speed: 250kts Options: - Use NATs: yes - Use PACOTS: yes - Use low airways: yes - Use high airways: yes

Route

LFST STR LFGA

ID Type Via Altitude Latitude Longitude Leg Dist Tot Dist Heading (true) Name
O LFST APT - 0 ft / 0 m 48.53833˚ 7.62826˚ - 0 nm - Entzheim
STR VOR - 1,000 ft / 305 m 48.50539˚ 7.57197˚ 2 nm 2 nm 229° / 229° STRASBOURG ENTZHEIM VOR-DME
O LFGA APT - 0 ft / 0 m 48.10970˚ 7.35897˚ 25 nm 28 nm 200° / 200° Houssen

Altitude Profile

Advertisement - Login to hide

LFST

Details ICAO LFST (SXB)
Name Entzheim
Region France
Timezone Europe/Paris (UTC+1.0)
Stats Elevation 504 ft / 154 m (AMSL)
Location 48.538335° 7.628265°
Runways 1
Magnetic Variation 2.103° E

METAR

LFST 131500Z AUTO 19013KT 9999 -RA BKN036 OVC048 05/01 Q1006 NOSIG

Decode

TAF

TAF LFST 131100Z 1312/1412 20015KT CAVOK BECMG 1312/1315 SCT030 BKN050 TEMPO 1315/1324 -RA PROB40 TEMPO 1320/1323 20020G30KT 4000 RA BECMG 1323/1401 25020G35KT PROB40 TEMPO 1401/1405 26025G45KT 1200 SHRAGS FEW030CB BECMG 1409/1412 21015G25KT

Decode

Departure Runways

ID Width Length Bearing (true) Bearing (mag) Surface Threshold Offset Overrun Length
05 148 ft / 45 m 7,899 ft / 2,408 m 48.60° 46.50° Asphalt 0 ft / 0 m 860 ft / 262 m
23 148 ft / 45 m 7,899 ft / 2,408 m 228.62° 226.52° Asphalt 0 ft / 0 m 902 ft / 275 m

LFGA

Details ICAO LFGA (CMR)
Name Houssen
Region France
Timezone Europe/Paris (UTC+1.0)
Stats Elevation 627 ft / 191 m (AMSL)
Location 48.109701° 7.358965°
Runways 1
Magnetic Variation 2.036° E

METAR

LFGA 131500Z AUTO 17013KT 9999 BKN040 BKN088 OVC110 04/01 Q1007

Decode

TAF

Not found

Destination Runways

ID Width Length Bearing (true) Bearing (mag) Surface Threshold Offset Overrun Length
01 98 ft / 30 m 5,298 ft / 1,615 m 10.98° 8.94° Asphalt 689 ft / 210 m 0 ft / 0 m
19 98 ft / 30 m 5,298 ft / 1,615 m 190.98° 188.94° Asphalt 0 ft / 0 m 0 ft / 0 m

Approach Navaids

Runway Type Ident Frequency Range Bearing (true) Bearing (mag) Slope Elevation
19 Localiser HO 110.70 MHz 18 nm / 33 km 191.00° 188.96° - 627 ft / 191 m (AMSL)
19 Glidescope HO 110.70 MHz 10 nm / 19 km 190.98° 188.94° 3.80° 627 ft / 191 m (AMSL)

Popular Alternatives